Terminal Aerodrome Forecast
Issued by NWS

Home | Current Version | Previous Version | Graphics & Text | Print | Product List | Glossary On
Versions: 1 2 3 4 5 6 7 8 9 10 11 12 13 14 15 16 17 18 19 20 21 22
000
FTUS43 KMPX 220520
TAFRNH
TAF
KRNH 220520Z 2206/2306 00000KT P6SM BKN250
     FM221700 11006KT P6SM OVC080
     FM222100 11007KT P6SM VCSH OVC020
     FM222300 10007KT 2SM -SN BR OVC025
     FM230100 10008KT 1SM -SN BR OVC009=

USA.gov is the U.S. government's official web portal to all federal, state and local government web resources and services.